sensor_id;sensor_type;location;lat;lon;timestamp;pressure;altitude;pressure_sealevel;temperature;humidity
54329;BME280;40710;51.120;13.136;2023-03-14T00:01:19;97280.13;;;13.59;72.49
54329;BME280;40710;51.120;13.136;2023-03-14T00:03:44;97284.94;;;14.08;71.20
54329;BME280;40710;51.120;13.136;2023-03-14T00:06:10;97283.06;;;14.27;70.93
54329;BME280;40710;51.120;13.136;2023-03-14T00:08:35;97282.13;;;13.84;70.91
54329;BME280;40710;51.120;13.136;2023-03-14T00:11:05;97262.72;;;14.45;69.28
54329;BME280;40710;51.120;13.136;2023-03-14T00:13:29;97258.47;;;14.26;68.83
54329;BME280;40710;51.120;13.136;2023-03-14T00:15:54;97248.53;;;14.54;68.49
54329;BME280;40710;51.120;13.136;2023-03-14T00:18:19;97246.56;;;14.56;67.82
54329;BME280;40710;51.120;13.136;2023-03-14T00:20:44;97236.03;;;15.16;66.69
54329;BME280;40710;51.120;13.136;2023-03-14T00:23:08;97255.63;;;14.19;68.75
54329;BME280;40710;51.120;13.136;2023-03-14T00:25:33;97247.97;;;14.34;68.62
54329;BME280;40710;51.120;13.136;2023-03-14T00:27:58;97268.03;;;13.75;70.91
54329;BME280;40710;51.120;13.136;2023-03-14T00:30:23;97261.41;;;13.97;69.84
54329;BME280;40710;51.120;13.136;2023-03-14T00:32:47;97250.25;;;14.29;69.11
54329;BME280;40710;51.120;13.136;2023-03-14T00:35:12;97256.34;;;13.77;71.04
54329;BME280;40710;51.120;13.136;2023-03-14T00:37:37;97246.19;;;13.65;70.65
54329;BME280;40710;51.120;13.136;2023-03-14T00:40:02;97249.28;;;13.60;70.80
54329;BME280;40710;51.120;13.136;2023-03-14T00:42:30;97249.72;;;13.37;71.24
54329;BME280;40710;51.120;13.136;2023-03-14T00:44:56;97256.25;;;13.43;71.21
54329;BME280;40710;51.120;13.136;2023-03-14T00:47:20;97258.78;;;13.35;70.99
54329;BME280;40710;51.120;13.136;2023-03-14T00:49:45;97271.88;;;13.45;71.15
54329;BME280;40710;51.120;13.136;2023-03-14T00:52:09;97258.91;;;14.13;68.28
54329;BME280;40710;51.120;13.136;2023-03-14T00:54:34;97271.94;;;13.89;69.06
54329;BME280;40710;51.120;13.136;2023-03-14T00:56:58;97265.44;;;14.01;68.64
54329;BME280;40710;51.120;13.136;2023-03-14T00:59:23;97270.47;;;13.32;70.90
54329;BME280;40710;51.120;13.136;2023-03-14T01:01:48;97269.91;;;13.83;69.21
54329;BME280;40710;51.120;13.136;2023-03-14T01:04:12;97252.25;;;13.57;69.79
54329;BME280;40710;51.120;13.136;2023-03-14T01:06:37;97238.50;;;13.35;70.79
54329;BME280;40710;51.120;13.136;2023-03-14T01:09:02;97247.66;;;13.67;70.23
54329;BME280;40710;51.120;13.136;2023-03-14T01:11:30;97231.38;;;14.24;68.09
54329;BME280;40710;51.120;13.136;2023-03-14T01:13:56;97256.97;;;13.71;69.25
54329;BME280;40710;51.120;13.136;2023-03-14T01:16:22;97248.16;;;13.63;68.82
54329;BME280;40710;51.120;13.136;2023-03-14T01:18:48;97253.94;;;13.66;69.60
54329;BME280;40710;51.120;13.136;2023-03-14T01:21:14;97263.81;;;13.82;69.15
54329;BME280;40710;51.120;13.136;2023-03-14T01:23:39;97261.53;;;14.13;66.44
54329;BME280;40710;51.120;13.136;2023-03-14T01:26:03;97268.97;;;13.92;67.45
54329;BME280;40710;51.120;13.136;2023-03-14T01:28:28;97267.78;;;13.86;68.19
54329;BME280;40710;51.120;13.136;2023-03-14T01:30:52;97264.41;;;13.76;67.29
54329;BME280;40710;51.120;13.136;2023-03-14T01:33:17;97255.59;;;14.11;66.15
54329;BME280;40710;51.120;13.136;2023-03-14T01:35:42;97259.56;;;14.15;66.01
54329;BME280;40710;51.120;13.136;2023-03-14T01:38:06;97274.59;;;13.89;66.70
54329;BME280;40710;51.120;13.136;2023-03-14T01:40:31;97260.44;;;14.24;65.62
54329;BME280;40710;51.120;13.136;2023-03-14T01:42:57;97265.06;;;14.22;65.85
54329;BME280;40710;51.120;13.136;2023-03-14T01:48:26;97256.53;;;13.40;66.88
54329;BME280;40710;51.120;13.136;2023-03-14T01:50:51;97244.41;;;14.52;64.77
54329;BME280;40710;51.120;13.136;2023-03-14T01:53:16;97245.53;;;14.41;63.71
54329;BME280;40710;51.120;13.136;2023-03-14T01:55:45;97244.25;;;14.19;64.22
54329;BME280;40710;51.120;13.136;2023-03-14T01:58:10;97232.72;;;14.28;63.61
54329;BME280;40710;51.120;13.136;2023-03-14T02:00:34;97232.31;;;14.41;63.44
54329;BME280;40710;51.120;13.136;2023-03-14T02:03:06;97252.78;;;13.87;65.66
54329;BME280;40710;51.120;13.136;2023-03-14T02:05:37;97244.16;;;14.03;64.59
54329;BME280;40710;51.120;13.136;2023-03-14T02:08:07;97254.31;;;13.71;65.05
54329;BME280;40710;51.120;13.136;2023-03-14T02:10:38;97245.31;;;13.82;64.54
54329;BME280;40710;51.120;13.136;2023-03-14T02:13:05;97224.03;;;14.44;62.84
54329;BME280;40710;51.120;13.136;2023-03-14T02:15:30;97222.19;;;14.36;62.73
54329;BME280;40710;51.120;13.136;2023-03-14T02:17:58;97230.06;;;13.50;65.15
54329;BME280;40710;51.120;13.136;2023-03-14T02:20:34;97229.94;;;14.04;63.89
54329;BME280;40710;51.120;13.136;2023-03-14T02:23:01;97225.22;;;14.15;62.74
54329;BME280;40710;51.120;13.136;2023-03-14T02:28:18;97220.84;;;13.98;62.63
54329;BME280;40710;51.120;13.136;2023-03-14T02:30:43;97213.69;;;13.64;63.00
54329;BME280;40710;51.120;13.136;2023-03-14T02:33:13;97219.72;;;13.56;63.39
54329;BME280;40710;51.120;13.136;2023-03-14T02:35:50;97235.84;;;13.71;62.06
54329;BME280;40710;51.120;13.136;2023-03-14T02:41:06;97232.94;;;13.38;63.33
54329;BME280;40710;51.120;13.136;2023-03-14T02:43:30;97238.50;;;13.53;63.50
54329;BME280;40710;51.120;13.136;2023-03-14T02:45:55;97258.72;;;13.63;62.97
54329;BME280;40710;51.120;13.136;2023-03-14T02:48:39;97223.03;;;13.58;62.06
54329;BME280;40710;51.120;13.136;2023-03-14T02:51:05;97211.22;;;14.57;59.63
54329;BME280;40710;51.120;13.136;2023-03-14T02:53:33;97204.84;;;14.34;59.88
54329;BME280;40710;51.120;13.136;2023-03-14T02:55:58;97218.50;;;13.95;62.02
54329;BME280;40710;51.120;13.136;2023-03-14T02:58:22;97222.25;;;13.40;62.08
54329;BME280;40710;51.120;13.136;2023-03-14T03:00:47;97191.63;;;13.99;61.36
54329;BME280;40710;51.120;13.136;2023-03-14T03:03:12;97216.19;;;13.66;61.94
54329;BME280;40710;51.120;13.136;2023-03-14T03:05:38;97188.22;;;13.81;60.79
54329;BME280;40710;51.120;13.136;2023-03-14T03:08:03;97182.03;;;13.46;61.81
54329;BME280;40710;51.120;13.136;2023-03-14T03:10:28;97187.16;;;13.48;62.19
54329;BME280;40710;51.120;13.136;2023-03-14T03:12:53;97189.53;;;13.33;62.72
54329;BME280;40710;51.120;13.136;2023-03-14T03:15:17;97189.94;;;13.46;62.82
54329;BME280;40710;51.120;13.136;2023-03-14T03:17:43;97189.13;;;13.28;62.76
54329;BME280;40710;51.120;13.136;2023-03-14T03:20:08;97187.56;;;13.17;63.03
54329;BME280;40710;51.120;13.136;2023-03-14T03:22:33;97181.66;;;13.41;62.29
54329;BME280;40710;51.120;13.136;2023-03-14T03:24:58;97175.19;;;13.17;62.93
54329;BME280;40710;51.120;13.136;2023-03-14T03:27:22;97192.72;;;13.27;63.55
54329;BME280;40710;51.120;13.136;2023-03-14T03:29:47;97192.88;;;13.07;63.27
54329;BME280;40710;51.120;13.136;2023-03-14T03:32:11;97185.13;;;13.86;61.67
54329;BME280;40710;51.120;13.136;2023-03-14T03:34:36;97186.22;;;13.75;62.17
54329;BME280;40710;51.120;13.136;2023-03-14T03:37:00;97181.13;;;13.37;62.18
54329;BME280;40710;51.120;13.136;2023-03-14T03:39:25;97177.72;;;13.63;61.80
54329;BME280;40710;51.120;13.136;2023-03-14T03:41:49;97177.91;;;13.26;62.91
54329;BME280;40710;51.120;13.136;2023-03-14T03:44:14;97174.06;;;13.38;61.95
54329;BME280;40710;51.120;13.136;2023-03-14T03:46:38;97190.88;;;13.19;63.31
54329;BME280;40710;51.120;13.136;2023-03-14T03:49:03;97180.16;;;13.83;61.61
54329;BME280;40710;51.120;13.136;2023-03-14T03:51:27;97175.28;;;13.43;62.40
54329;BME280;40710;51.120;13.136;2023-03-14T03:53:52;97162.91;;;13.26;62.89
54329;BME280;40710;51.120;13.136;2023-03-14T03:56:17;97180.97;;;13.21;63.03
54329;BME280;40710;51.120;13.136;2023-03-14T03:58:42;97182.19;;;13.09;63.03
54329;BME280;40710;51.120;13.136;2023-03-14T04:01:06;97171.13;;;12.87;63.46
54329;BME280;40710;51.120;13.136;2023-03-14T04:03:31;97163.78;;;13.79;61.47
54329;BME280;40710;51.120;13.136;2023-03-14T04:06:04;97176.75;;;13.28;61.96
54329;BME280;40710;51.120;13.136;2023-03-14T04:08:29;97183.41;;;12.96;63.98
54329;BME280;40710;51.120;13.136;2023-03-14T04:10:58;97162.09;;;14.04;61.36
54329;BME280;40710;51.120;13.136;2023-03-14T04:13:24;97143.41;;;14.74;58.68
54329;BME280;40710;51.120;13.136;2023-03-14T04:15:48;97178.06;;;13.06;62.32
54329;BME280;40710;51.120;13.136;2023-03-14T04:18:13;97172.63;;;12.90;63.57
54329;BME280;40710;51.120;13.136;2023-03-14T04:20:37;97155.38;;;13.31;61.44
54329;BME280;40710;51.120;13.136;2023-03-14T04:23:02;97164.88;;;13.42;61.94
54329;BME280;40710;51.120;13.136;2023-03-14T04:25:26;97173.44;;;12.90;62.90
54329;BME280;40710;51.120;13.136;2023-03-14T04:27:51;97163.00;;;13.34;63.08
54329;BME280;40710;51.120;13.136;2023-03-14T04:30:15;97160.72;;;13.21;61.91
54329;BME280;40710;51.120;13.136;2023-03-14T04:32:40;97147.94;;;13.53;61.67
54329;BME280;40710;51.120;13.136;2023-03-14T04:35:05;97153.88;;;14.07;60.63
54329;BME280;40710;51.120;13.136;2023-03-14T04:37:31;97133.34;;;14.27;59.24
54329;BME280;40710;51.120;13.136;2023-03-14T04:39:55;97139.69;;;14.08;60.10
54329;BME280;40710;51.120;13.136;2023-03-14T04:42:20;97136.41;;;14.14;59.84
54329;BME280;40710;51.120;13.136;2023-03-14T04:44:44;97136.66;;;13.95;59.73
54329;BME280;40710;51.120;13.136;2023-03-14T04:47:11;97144.44;;;13.44;60.72
54329;BME280;40710;51.120;13.136;2023-03-14T04:49:35;97123.50;;;14.03;59.68
54329;BME280;40710;51.120;13.136;2023-03-14T04:52:00;97130.94;;;13.73;60.88
54329;BME280;40710;51.120;13.136;2023-03-14T04:54:24;97134.69;;;13.71;60.48
54329;BME280;40710;51.120;13.136;2023-03-14T04:56:49;97137.97;;;13.20;61.59
54329;BME280;40710;51.120;13.136;2023-03-14T04:59:13;97127.72;;;13.17;61.42
54329;BME280;40710;51.120;13.136;2023-03-14T05:01:38;97121.94;;;13.58;60.41
54329;BME280;40710;51.120;13.136;2023-03-14T05:04:02;97119.16;;;13.94;59.64
54329;BME280;40710;51.120;13.136;2023-03-14T05:06:27;97150.38;;;13.28;61.31
54329;BME280;40710;51.120;13.136;2023-03-14T05:08:51;97145.22;;;13.18;61.25
54329;BME280;40710;51.120;13.136;2023-03-14T05:11:16;97126.69;;;13.80;59.68
54329;BME280;40710;51.120;13.136;2023-03-14T05:13:40;97127.63;;;13.09;61.00
54329;BME280;40710;51.120;13.136;2023-03-14T05:16:10;97126.81;;;13.09;61.83
54329;BME280;40710;51.120;13.136;2023-03-14T05:18:35;97119.72;;;13.27;60.68
54329;BME280;40710;51.120;13.136;2023-03-14T05:21:00;97112.38;;;13.91;60.19
54329;BME280;40710;51.120;13.136;2023-03-14T05:23:24;97112.13;;;12.88;62.19
54329;BME280;40710;51.120;13.136;2023-03-14T05:25:49;97104.31;;;12.96;61.48
54329;BME280;40710;51.120;13.136;2023-03-14T05:28:13;97094.44;;;14.03;59.16
54329;BME280;40710;51.120;13.136;2023-03-14T05:30:38;97095.97;;;13.79;59.71
54329;BME280;40710;51.120;13.136;2023-03-14T05:33:02;97098.88;;;12.98;61.18
54329;BME280;40710;51.120;13.136;2023-03-14T05:35:27;97088.72;;;13.47;60.57
54329;BME280;40710;51.120;13.136;2023-03-14T05:37:51;97100.34;;;12.92;61.23
54329;BME280;40710;51.120;13.136;2023-03-14T05:40:16;97099.56;;;13.00;62.04
54329;BME280;40710;51.120;13.136;2023-03-14T05:42:40;97109.13;;;12.47;62.47
54329;BME280;40710;51.120;13.136;2023-03-14T05:45:05;97100.44;;;13.53;60.85
54329;BME280;40710;51.120;13.136;2023-03-14T05:47:30;97115.75;;;12.69;62.77
54329;BME280;40710;51.120;13.136;2023-03-14T05:49:54;97104.91;;;13.08;61.16
54329;BME280;40710;51.120;13.136;2023-03-14T05:52:19;97121.34;;;12.84;62.07
54329;BME280;40710;51.120;13.136;2023-03-14T05:54:44;97129.28;;;13.28;61.39
54329;BME280;40710;51.120;13.136;2023-03-14T05:57:08;97129.44;;;12.55;62.52
54329;BME280;40710;51.120;13.136;2023-03-14T05:59:33;97113.56;;;13.18;61.59
54329;BME280;40710;51.120;13.136;2023-03-14T06:01:57;97112.38;;;13.57;59.73
54329;BME280;40710;51.120;13.136;2023-03-14T06:04:22;97107.44;;;13.18;60.07
54329;BME280;40710;51.120;13.136;2023-03-14T06:06:46;97106.16;;;13.66;59.84
54329;BME280;40710;51.120;13.136;2023-03-14T06:09:11;97105.09;;;14.28;58.21
54329;BME280;40710;51.120;13.136;2023-03-14T06:11:35;97115.03;;;13.65;59.17
54329;BME280;40710;51.120;13.136;2023-03-14T06:14:00;97113.88;;;13.94;58.30
54329;BME280;40710;51.120;13.136;2023-03-14T06:16:24;97110.94;;;14.05;57.91
54329;BME280;40710;51.120;13.136;2023-03-14T06:18:49;97113.88;;;13.94;58.50
54329;BME280;40710;51.120;13.136;2023-03-14T06:21:13;97123.09;;;13.37;59.91
54329;BME280;40710;51.120;13.136;2023-03-14T06:23:38;97115.16;;;13.90;58.42
54329;BME280;40710;51.120;13.136;2023-03-14T06:26:03;97116.19;;;13.97;58.63
54329;BME280;40710;51.120;13.136;2023-03-14T06:28:27;97123.50;;;14.03;59.40
54329;BME280;40710;51.120;13.136;2023-03-14T06:30:52;97134.28;;;13.84;58.80
54329;BME280;40710;51.120;13.136;2023-03-14T06:33:16;97139.78;;;13.64;60.25
54329;BME280;40710;51.120;13.136;2023-03-14T06:35:41;97126.63;;;14.07;58.35
54329;BME280;40710;51.120;13.136;2023-03-14T06:38:05;97125.25;;;14.29;57.26
54329;BME280;40710;51.120;13.136;2023-03-14T06:40:30;97138.63;;;13.93;58.26
54329;BME280;40710;51.120;13.136;2023-03-14T06:42:54;97131.88;;;13.64;58.95
54329;BME280;40710;51.120;13.136;2023-03-14T06:45:19;97136.47;;;13.62;59.15
54329;BME280;40710;51.120;13.136;2023-03-14T06:47:44;97131.59;;;13.75;58.88
54329;BME280;40710;51.120;13.136;2023-03-14T06:50:09;97112.13;;;14.62;56.79
54329;BME280;40710;51.120;13.136;2023-03-14T06:52:34;97126.25;;;14.44;57.63
54329;BME280;40710;51.120;13.136;2023-03-14T06:54:59;97126.94;;;14.38;57.46
54329;BME280;40710;51.120;13.136;2023-03-14T06:57:23;97129.75;;;14.02;58.21
54329;BME280;40710;51.120;13.136;2023-03-14T06:59:48;97117.16;;;14.98;56.21
54329;BME280;40710;51.120;13.136;2023-03-14T07:02:13;97135.53;;;14.56;56.92
54329;BME280;40710;51.120;13.136;2023-03-14T07:04:37;97134.63;;;14.74;56.94
54329;BME280;40710;51.120;13.136;2023-03-14T07:07:02;97140.09;;;14.30;56.94
54329;BME280;40710;51.120;13.136;2023-03-14T07:09:27;97173.00;;;13.49;57.94
54329;BME280;40710;51.120;13.136;2023-03-14T07:11:51;97160.19;;;13.18;59.83
54329;BME280;40710;51.120;13.136;2023-03-14T07:14:16;97150.47;;;13.18;59.66
54329;BME280;40710;51.120;13.136;2023-03-14T07:16:40;97140.81;;;13.71;58.86
54329;BME280;40710;51.120;13.136;2023-03-14T07:19:05;97151.81;;;13.22;59.94
54329;BME280;40710;51.120;13.136;2023-03-14T07:21:30;97122.25;;;14.74;56.71
54329;BME280;40710;51.120;13.136;2023-03-14T07:23:56;97134.50;;;14.33;56.50
54329;BME280;40710;51.120;13.136;2023-03-14T07:26:20;97132.50;;;15.02;55.27
54329;BME280;40710;51.120;13.136;2023-03-14T07:28:45;97129.84;;;14.27;57.39
54329;BME280;40710;51.120;13.136;2023-03-14T07:31:10;97123.22;;;14.23;56.73
54329;BME280;40710;51.120;13.136;2023-03-14T07:33:35;97136.78;;;13.59;58.92
54329;BME280;40710;51.120;13.136;2023-03-14T07:35:59;97128.28;;;14.50;56.70
54329;BME280;40710;51.120;13.136;2023-03-14T07:38:24;97124.41;;;15.04;55.09
54329;BME280;40710;51.120;13.136;2023-03-14T07:40:49;97142.88;;;13.59;58.51
54329;BME280;40710;51.120;13.136;2023-03-14T07:43:13;97131.09;;;14.06;57.92
54329;BME280;40710;51.120;13.136;2023-03-14T07:45:38;97136.06;;;13.75;58.43
54329;BME280;40710;51.120;13.136;2023-03-14T07:48:02;97120.13;;;15.19;55.32
54329;BME280;40710;51.120;13.136;2023-03-14T07:50:27;97120.94;;;15.03;55.27
54329;BME280;40710;51.120;13.136;2023-03-14T07:52:54;97129.38;;;13.97;57.82
54329;BME280;40710;51.120;13.136;2023-03-14T07:55:18;97138.63;;;13.93;57.70
54329;BME280;40710;51.120;13.136;2023-03-14T07:57:43;97115.47;;;15.21;55.06
54329;BME280;40710;51.120;13.136;2023-03-14T08:00:08;97126.09;;;14.46;56.69
54329;BME280;40710;51.120;13.136;2023-03-14T08:02:33;97123.59;;;15.28;54.98
54329;BME280;40710;51.120;13.136;2023-03-14T08:04:58;97121.59;;;15.05;55.30
54329;BME280;40710;51.120;13.136;2023-03-14T08:07:22;97135.47;;;14.24;56.34
54329;BME280;40710;51.120;13.136;2023-03-14T08:09:47;97138.03;;;14.07;56.53
54329;BME280;40710;51.120;13.136;2023-03-14T08:12:11;97143.53;;;13.88;57.11
54329;BME280;40710;51.120;13.136;2023-03-14T08:14:36;97117.78;;;14.75;55.21
54329;BME280;40710;51.120;13.136;2023-03-14T08:17:00;97113.50;;;15.15;53.94
54329;BME280;40710;51.120;13.136;2023-03-14T08:19:25;97113.25;;;14.51;54.62
54329;BME280;40710;51.120;13.136;2023-03-14T08:21:50;97106.34;;;15.65;53.22
54329;BME280;40710;51.120;13.136;2023-03-14T08:24:14;97113.84;;;14.96;54.79
54329;BME280;40710;51.120;13.136;2023-03-14T08:26:39;97099.25;;;15.49;53.42
54329;BME280;40710;51.120;13.136;2023-03-14T08:29:04;97117.47;;;15.11;53.63
54329;BME280;40710;51.120;13.136;2023-03-14T08:31:28;97107.22;;;14.91;54.10
54329;BME280;40710;51.120;13.136;2023-03-14T08:33:53;97091.88;;;17.32;48.42
54329;BME280;40710;51.120;13.136;2023-03-14T08:36:19;97126.41;;;15.26;53.02
54329;BME280;40710;51.120;13.136;2023-03-14T08:38:44;97108.31;;;15.71;51.81
54329;BME280;40710;51.120;13.136;2023-03-14T08:41:09;97104.72;;;16.12;51.49
54329;BME280;40710;51.120;13.136;2023-03-14T08:43:33;97099.09;;;15.42;52.29
54329;BME280;40710;51.120;13.136;2023-03-14T08:46:00;97095.47;;;16.70;48.50
54329;BME280;40710;51.120;13.136;2023-03-14T08:48:25;97079.97;;;17.43;48.15
54329;BME280;40710;51.120;13.136;2023-03-14T08:50:49;97088.09;;;16.57;49.53
54329;BME280;40710;51.120;13.136;2023-03-14T08:53:14;97090.16;;;16.70;48.93
54329;BME280;40710;51.120;13.136;2023-03-14T08:55:38;97088.53;;;16.06;52.41
54329;BME280;40710;51.120;13.136;2023-03-14T08:58:03;97097.34;;;16.61;50.58
54329;BME280;40710;51.120;13.136;2023-03-14T09:00:27;97102.38;;;15.53;53.32
54329;BME280;40710;51.120;13.136;2023-03-14T09:02:52;97094.59;;;15.67;51.40
54329;BME280;40710;51.120;13.136;2023-03-14T09:05:16;97119.13;;;14.96;53.13
54329;BME280;40710;51.120;13.136;2023-03-14T09:07:41;97119.69;;;14.56;54.00
54329;BME280;40710;51.120;13.136;2023-03-14T09:10:07;97120.09;;;14.70;53.93
54329;BME280;40710;51.120;13.136;2023-03-14T09:12:32;97136.69;;;14.46;54.39
54329;BME280;40710;51.120;13.136;2023-03-14T09:14:56;97109.78;;;15.65;51.77
54329;BME280;40710;51.120;13.136;2023-03-14T09:17:21;97116.47;;;16.17;50.56
54329;BME280;40710;51.120;13.136;2023-03-14T09:19:45;97126.69;;;15.64;51.76
54329;BME280;40710;51.120;13.136;2023-03-14T09:22:10;97138.72;;;14.60;53.29
54329;BME280;40710;51.120;13.136;2023-03-14T09:24:35;97140.25;;;14.71;53.11
54329;BME280;40710;51.120;13.136;2023-03-14T09:26:59;97148.47;;;14.60;53.47
54329;BME280;40710;51.120;13.136;2023-03-14T09:29:24;97126.28;;;16.00;51.45
54329;BME280;40710;51.120;13.136;2023-03-14T09:31:48;97150.00;;;14.79;53.32
54329;BME280;40710;51.120;13.136;2023-03-14T09:34:13;97148.56;;;14.42;53.51
54329;BME280;40710;51.120;13.136;2023-03-14T09:36:38;97140.78;;;14.91;52.40
54329;BME280;40710;51.120;13.136;2023-03-14T09:39:03;97143.44;;;14.40;53.66
54329;BME280;40710;51.120;13.136;2023-03-14T09:41:36;97132.03;;;15.40;51.86
54329;BME280;40710;51.120;13.136;2023-03-14T09:46:31;97160.91;;;14.75;53.03
54329;BME280;40710;51.120;13.136;2023-03-14T09:48:57;97154.63;;;14.26;53.47
54329;BME280;40710;51.120;13.136;2023-03-14T09:51:21;97119.66;;;16.04;50.81
54329;BME280;40710;51.120;13.136;2023-03-14T09:53:49;97138.78;;;15.50;51.73
54329;BME280;40710;51.120;13.136;2023-03-14T09:56:19;97127.78;;;16.03;50.63
54329;BME280;40710;51.120;13.136;2023-03-14T09:58:51;97124.47;;;16.40;48.71
54329;BME280;40710;51.120;13.136;2023-03-14T10:01:24;97140.28;;;15.28;50.98
54329;BME280;40710;51.120;13.136;2023-03-14T10:03:54;97142.56;;;14.82;53.27
54329;BME280;40710;51.120;13.136;2023-03-14T10:06:21;97152.00;;;14.34;53.46
54329;BME280;40710;51.120;13.136;2023-03-14T10:08:47;97141.63;;;14.41;53.41
54329;BME280;40710;51.120;13.136;2023-03-14T10:11:16;97141.59;;;15.16;51.30
54329;BME280;40710;51.120;13.136;2023-03-14T10:14:11;97128.84;;;15.69;50.44
54329;BME280;40710;51.120;13.136;2023-03-14T10:16:42;97123.91;;;15.33;51.83
54329;BME280;40710;51.120;13.136;2023-03-14T10:19:11;97135.34;;;14.42;53.21
54329;BME280;40710;51.120;13.136;2023-03-14T10:21:42;97129.56;;;16.50;49.35
54329;BME280;40710;51.120;13.136;2023-03-14T10:26:53;97142.59;;;15.23;51.93
54329;BME280;40710;51.120;13.136;2023-03-14T10:29:18;97139.25;;;15.87;50.62
54329;BME280;40710;51.120;13.136;2023-03-14T10:31:48;97144.44;;;15.23;52.83
54329;BME280;40710;51.120;13.136;2023-03-14T10:34:17;97131.69;;;15.10;50.99
54329;BME280;40710;51.120;13.136;2023-03-14T10:36:45;97129.88;;;15.19;52.60
54329;BME280;40710;51.120;13.136;2023-03-14T10:39:38;97122.25;;;15.48;51.47
54329;BME280;40710;51.120;13.136;2023-03-14T10:42:16;97133.13;;;14.63;52.90
54329;BME280;40710;51.120;13.136;2023-03-14T10:44:44;97123.75;;;14.85;52.68
54329;BME280;40710;51.120;13.136;2023-03-14T10:47:19;97103.09;;;16.96;47.95
54329;BME280;40710;51.120;13.136;2023-03-14T10:49:46;97114.75;;;15.68;49.26
54329;BME280;40710;51.120;13.136;2023-03-14T10:52:28;97113.25;;;15.74;50.01
54329;BME280;40710;51.120;13.136;2023-03-14T10:54:57;97137.63;;;15.04;52.57
54329;BME280;40710;51.120;13.136;2023-03-14T10:57:22;97100.94;;;14.84;50.89
54329;BME280;40710;51.120;13.136;2023-03-14T10:59:47;97117.41;;;15.68;50.54
54329;BME280;40710;51.120;13.136;2023-03-14T11:05:25;97115.72;;;16.32;50.51
54329;BME280;40710;51.120;13.136;2023-03-14T11:08:02;97119.13;;;15.28;52.25
54329;BME280;40710;51.120;13.136;2023-03-14T11:10:37;97111.94;;;15.70;50.24
54329;BME280;40710;51.120;13.136;2023-03-14T11:19:12;97108.16;;;15.56;50.76
54329;BME280;40710;51.120;13.136;2023-03-14T11:21:49;97119.78;;;15.06;51.68
54329;BME280;40710;51.120;13.136;2023-03-14T11:27:23;97112.50;;;15.41;51.69
54329;BME280;40710;51.120;13.136;2023-03-14T11:32:41;97102.19;;;15.87;49.67
54329;BME280;40710;51.120;13.136;2023-03-14T11:35:30;97095.28;;;16.09;49.55
54329;BME280;40710;51.120;13.136;2023-03-14T11:38:19;97073.25;;;16.71;47.58
54329;BME280;40710;51.120;13.136;2023-03-14T11:40:55;97071.31;;;16.88;47.36
54329;BME280;40710;51.120;13.136;2023-03-14T11:43:29;97079.63;;;17.08;46.44
54329;BME280;40710;51.120;13.136;2023-03-14T11:46:10;97063.25;;;17.87;45.48
54329;BME280;40710;51.120;13.136;2023-03-14T11:48:57;97065.97;;;18.24;44.40
54329;BME280;40710;51.120;13.136;2023-03-14T11:51:29;97089.75;;;16.81;47.77
54329;BME280;40710;51.120;13.136;2023-03-14T11:54:11;97072.00;;;18.32;44.94
54329;BME280;40710;51.120;13.136;2023-03-14T11:56:46;97091.47;;;16.20;48.46
54329;BME280;40710;51.120;13.136;2023-03-14T11:59:33;97087.66;;;17.53;47.12
54329;BME280;40710;51.120;13.136;2023-03-14T12:02:20;97105.91;;;16.72;48.62
54329;BME280;40710;51.120;13.136;2023-03-14T12:13:16;97132.75;;;17.00;50.96
54329;BME280;40710;51.120;13.136;2023-03-14T12:15:48;97139.44;;;15.61;53.76
54329;BME280;40710;51.120;13.136;2023-03-14T12:18:30;97124.56;;;15.02;55.46
54329;BME280;40710;51.120;13.136;2023-03-14T12:21:01;97121.06;;;15.51;54.14
54329;BME280;40710;51.120;13.136;2023-03-14T12:23:36;97116.16;;;15.31;54.23
54329;BME280;40710;51.120;13.136;2023-03-14T12:28:35;97121.25;;;15.49;52.24
54329;BME280;40710;51.120;13.136;2023-03-14T12:34:25;97117.41;;;15.85;50.42
54329;BME280;40710;51.120;13.136;2023-03-14T12:36:59;97090.59;;;17.43;48.67
54329;BME280;40710;51.120;13.136;2023-03-14T12:40:15;97117.44;;;16.56;51.33
54329;BME280;40710;51.120;13.136;2023-03-14T12:45:31;97089.25;;;17.62;46.96
54329;BME280;40710;51.120;13.136;2023-03-14T12:48:22;97085.28;;;17.58;47.69
54329;BME280;40710;51.120;13.136;2023-03-14T12:51:03;97071.44;;;18.95;45.71
54329;BME280;40710;51.120;13.136;2023-03-14T12:56:44;97087.16;;;16.50;50.19
54329;BME280;40710;51.120;13.136;2023-03-14T12:59:30;97090.16;;;16.70;48.58
54329;BME280;40710;51.120;13.136;2023-03-14T13:04:45;97089.47;;;17.90;46.63
54329;BME280;40710;51.120;13.136;2023-03-14T13:07:28;97074.34;;;16.85;48.66
54329;BME280;40710;51.120;13.136;2023-03-14T13:12:34;97053.34;;;18.11;46.73
54329;BME280;40710;51.120;13.136;2023-03-14T13:15:13;97043.97;;;18.15;45.43
54329;BME280;40710;51.120;13.136;2023-03-14T13:17:41;97058.09;;;17.03;46.23
54329;BME280;40710;51.120;13.136;2023-03-14T13:20:16;97042.25;;;17.77;46.21
54329;BME280;40710;51.120;13.136;2023-03-14T13:22:48;97052.88;;;16.95;47.90
54329;BME280;40710;51.120;13.136;2023-03-14T13:25:13;97050.16;;;17.03;48.00
54329;BME280;40710;51.120;13.136;2023-03-14T13:27:37;97073.34;;;16.55;48.76
54329;BME280;40710;51.120;13.136;2023-03-14T13:30:14;97061.88;;;16.39;48.33
54329;BME280;40710;51.120;13.136;2023-03-14T13:32:42;97052.03;;;16.71;47.68
54329;BME280;40710;51.120;13.136;2023-03-14T13:35:38;97033.09;;;17.50;46.49
54329;BME280;40710;51.120;13.136;2023-03-14T13:38:03;97027.31;;;17.91;45.38
54329;BME280;40710;51.120;13.136;2023-03-14T13:40:33;97033.13;;;18.31;46.05
54329;BME280;40710;51.120;13.136;2023-03-14T13:43:13;97060.75;;;15.94;50.11
54329;BME280;40710;51.120;13.136;2023-03-14T13:45:50;97054.34;;;15.88;48.93